Ann Arbor, MI (48103)

12:57 PM EST on February 08, 2016 (GMT -0500)
Polo Fields | | Change Station
CLOSE
Current Station
Personal Weather Station
Location: Ann Arbor, MI
Elevation: 912 ft
Nearby Weather Stations

Elev 912 ft 42.27 °N, 83.82 °W | Updated 14 seconds ago

Overcast
Overcast
42.3 °F
Feels Like 40 °F
N
3.7
Wind Variable Wind from WNW
Gusts 5.8 mph

Today
High -- | Low -- °F
--% Chance of Precip.
Yesterday
High -- | Low -- °F
Precip. -- in
Pressure 29.59 in
Visibility 10.0 miles
Clouds Scattered Clouds 10000 ft
Windchill 40 °F
Dew Point 33 °F
Humidity 69%
Rainfall 0.00 in
Snow Depth Not available.
7:41 AM 5:58 PM
New Moon, 0% visible
METAR KARB 081753Z 30006KT 10SM SCT100 04/M02 A2957 RMK AO2 SLP019 T00441022 10044 21033 58010
Pressure 29.59 in
Visibility 10.0 miles
Clouds Scattered Clouds 10000 ft
Windchill 40 °F
Dew Point 33 °F
Humidity 69%
Rainfall 0.00 in
Snow Depth Not available.
7:41 AM 5:58 PM
New Moon, 0% visible
METAR KARB 081753Z 30006KT 10SM SCT100 04/M02 A2957 RMK AO2 SLP019 T00441022 10044 21033 58010

10-Day Weather Forecast

Almanac

Astronomy

Feb. 08, 2016 Rise Set
Actual Time
Civil Twilight
Nautical Twilight
Astronomical Twilight
Moon
Length of Visible Light
Length of Day
Tomorrow will be .
, % of the Moon is Illuminated

Today's Extremes

State Highs State Lows

Community

WunderPhotos

Upload Photos

1,891,476 photos uploaded!

WunderBlog® & News

Nearby

Air Quality

  Air Quality AQ Index Pollutant
Not available.

Snow Depth

Station Depth Elevation

Earthquake Activity

City Distance Mag. Time & Date
Minimum magnitude displayed is 2.5.

Coastal Water Temperatures

Place Temperature

Stations

Nearby Weather Stations

Station Location Temp. Windchill Dew Point Humidity Wind Precip. Elev Updated Type
                   

Watches & Warnings

There are currently no watches in effect.